sensor_id;sensor_type;location;lat;lon;timestamp;temperature;humidity
23143;DHT22;11740;51.168;4.112;2023-03-01T00:01:02;0.90;1.00
23143;DHT22;11740;51.168;4.112;2023-03-01T00:03:29;0.90;1.00
23143;DHT22;11740;51.168;4.112;2023-03-01T00:05:56;0.80;1.00
23143;DHT22;11740;51.168;4.112;2023-03-01T00:08:23;0.80;1.00
23143;DHT22;11740;51.168;4.112;2023-03-01T00:11:01;0.70;1.00
23143;DHT22;11740;51.168;4.112;2023-03-01T00:13:55;0.70;1.00
23143;DHT22;11740;51.168;4.112;2023-03-01T00:16:24;0.70;1.00
23143;DHT22;11740;51.168;4.112;2023-03-01T00:18:53;0.60;1.00
23143;DHT22;11740;51.168;4.112;2023-03-01T00:21:21;0.60;1.00
23143;DHT22;11740;51.168;4.112;2023-03-01T00:23:49;0.60;1.00
23143;DHT22;11740;51.168;4.112;2023-03-01T00:26:16;0.50;1.00
23143;DHT22;11740;51.168;4.112;2023-03-01T00:28:44;0.50;1.00
23143;DHT22;11740;51.168;4.112;2023-03-01T00:31:12;0.40;1.00
23143;DHT22;11740;51.168;4.112;2023-03-01T00:33:40;0.40;1.00
23143;DHT22;11740;51.168;4.112;2023-03-01T00:36:09;0.40;1.00
23143;DHT22;11740;51.168;4.112;2023-03-01T00:38:38;0.30;1.00
23143;DHT22;11740;51.168;4.112;2023-03-01T00:41:15;0.30;1.00
23143;DHT22;11740;51.168;4.112;2023-03-01T00:43:43;0.30;1.00
23143;DHT22;11740;51.168;4.112;2023-03-01T00:46:12;0.30;1.00
23143;DHT22;11740;51.168;4.112;2023-03-01T00:48:44;0.20;1.00
23143;DHT22;11740;51.168;4.112;2023-03-01T00:51:13;0.20;1.00
23143;DHT22;11740;51.168;4.112;2023-03-01T00:53:44;0.20;1.00
23143;DHT22;11740;51.168;4.112;2023-03-01T00:56:12;0.10;1.00
23143;DHT22;11740;51.168;4.112;2023-03-01T00:58:40;0.10;1.00
23143;DHT22;11740;51.168;4.112;2023-03-01T01:01:15;0.10;1.00
23143;DHT22;11740;51.168;4.112;2023-03-01T01:03:45;0.00;1.00
23143;DHT22;11740;51.168;4.112;2023-03-01T01:06:17;0.00;1.00
23143;DHT22;11740;51.168;4.112;2023-03-01T01:08:46;0.00;1.00
23143;DHT22;11740;51.168;4.112;2023-03-01T01:11:14;-0.10;1.00
23143;DHT22;11740;51.168;4.112;2023-03-01T01:13:41;-0.10;1.00
23143;DHT22;11740;51.168;4.112;2023-03-01T01:16:10;-0.10;1.00
23143;DHT22;11740;51.168;4.112;2023-03-01T01:18:37;-0.20;1.00
23143;DHT22;11740;51.168;4.112;2023-03-01T01:21:05;-0.20;1.00
23143;DHT22;11740;51.168;4.112;2023-03-01T01:23:43;-0.20;1.00
23143;DHT22;11740;51.168;4.112;2023-03-01T01:26:14;-0.30;1.00
23143;DHT22;11740;51.168;4.112;2023-03-01T01:28:45;-0.30;1.00
23143;DHT22;11740;51.168;4.112;2023-03-01T01:31:12;-0.40;1.00
23143;DHT22;11740;51.168;4.112;2023-03-01T01:33:39;-0.40;1.00
23143;DHT22;11740;51.168;4.112;2023-03-01T01:36:07;-0.40;1.00
23143;DHT22;11740;51.168;4.112;2023-03-01T01:38:35;-0.40;1.00
23143;DHT22;11740;51.168;4.112;2023-03-01T01:41:03;-0.50;1.00
23143;DHT22;11740;51.168;4.112;2023-03-01T01:43:33;-0.50;1.00
23143;DHT22;11740;51.168;4.112;2023-03-01T01:46:04;-0.50;1.00
23143;DHT22;11740;51.168;4.112;2023-03-01T01:48:41;-0.60;1.00
23143;DHT22;11740;51.168;4.112;2023-03-01T01:51:11;-0.60;1.00
23143;DHT22;11740;51.168;4.112;2023-03-01T01:53:40;-0.60;1.00
23143;DHT22;11740;51.168;4.112;2023-03-01T01:56:10;-0.70;1.00
23143;DHT22;11740;51.168;4.112;2023-03-01T01:58:38;-0.70;1.00
23143;DHT22;11740;51.168;4.112;2023-03-01T02:01:06;-0.70;1.00
23143;DHT22;11740;51.168;4.112;2023-03-01T02:03:34;-0.70;1.00
23143;DHT22;11740;51.168;4.112;2023-03-01T02:06:17;-0.80;1.00
23143;DHT22;11740;51.168;4.112;2023-03-01T02:08:46;-0.80;1.00
23143;DHT22;11740;51.168;4.112;2023-03-01T02:11:14;-0.80;1.00
23143;DHT22;11740;51.168;4.112;2023-03-01T02:13:41;-0.80;1.00
23143;DHT22;11740;51.168;4.112;2023-03-01T02:16:09;-0.90;1.00
23143;DHT22;11740;51.168;4.112;2023-03-01T02:18:38;-0.90;1.00
23143;DHT22;11740;51.168;4.112;2023-03-01T02:23:58;-1.00;1.00
23143;DHT22;11740;51.168;4.112;2023-03-01T02:26:31;-1.00;1.00
23143;DHT22;11740;51.168;4.112;2023-03-01T02:29:03;-1.10;1.00
23143;DHT22;11740;51.168;4.112;2023-03-01T02:31:32;-1.10;1.00
23143;DHT22;11740;51.168;4.112;2023-03-01T02:34:09;-1.10;1.00
23143;DHT22;11740;51.168;4.112;2023-03-01T02:36:41;-1.10;1.00
23143;DHT22;11740;51.168;4.112;2023-03-01T02:39:12;-1.10;1.00
23143;DHT22;11740;51.168;4.112;2023-03-01T02:41:52;-1.20;1.00
23143;DHT22;11740;51.168;4.112;2023-03-01T02:44:21;-1.20;1.00
23143;DHT22;11740;51.168;4.112;2023-03-01T02:46:49;-1.20;1.00
23143;DHT22;11740;51.168;4.112;2023-03-01T02:49:22;-1.30;1.00
23143;DHT22;11740;51.168;4.112;2023-03-01T02:57:34;-1.40;29.40
23143;DHT22;11740;51.168;4.112;2023-03-01T03:00:24;-1.40;29.90
23143;DHT22;11740;51.168;4.112;2023-03-01T03:02:52;-1.50;1.00
23143;DHT22;11740;51.168;4.112;2023-03-01T03:05:21;-1.40;1.00
23143;DHT22;11740;51.168;4.112;2023-03-01T03:07:55;-1.50;42.30
23143;DHT22;11740;51.168;4.112;2023-03-01T03:10:24;-1.50;5.60
23143;DHT22;11740;51.168;4.112;2023-03-01T03:12:56;-1.50;1.00
23143;DHT22;11740;51.168;4.112;2023-03-01T03:15:24;-1.50;1.00
23143;DHT22;11740;51.168;4.112;2023-03-01T03:17:52;-1.60;5.80
23143;DHT22;11740;51.168;4.112;2023-03-01T03:20:20;-1.60;11.90
23143;DHT22;11740;51.168;4.112;2023-03-01T03:22:49;-1.60;5.60
23143;DHT22;11740;51.168;4.112;2023-03-01T03:25:17;-1.60;9.10
23143;DHT22;11740;51.168;4.112;2023-03-01T03:27:45;-1.70;5.60
23143;DHT22;11740;51.168;4.112;2023-03-01T03:30:16;-1.70;13.60
23143;DHT22;11740;51.168;4.112;2023-03-01T03:32:45;-1.70;1.00
23143;DHT22;11740;51.168;4.112;2023-03-01T03:35:29;-1.70;23.40
23143;DHT22;11740;51.168;4.112;2023-03-01T03:38:06;-1.70;59.40
23143;DHT22;11740;51.168;4.112;2023-03-01T03:40:37;-1.70;99.90
23143;DHT22;11740;51.168;4.112;2023-03-01T03:43:08;-1.70;99.90
23143;DHT22;11740;51.168;4.112;2023-03-01T03:45:38;-1.70;96.50
23143;DHT22;11740;51.168;4.112;2023-03-01T03:48:06;-1.70;85.90
23143;DHT22;11740;51.168;4.112;2023-03-01T03:50:33;-1.70;99.90
23143;DHT22;11740;51.168;4.112;2023-03-01T03:53:01;-1.70;99.90
23143;DHT22;11740;51.168;4.112;2023-03-01T03:55:30;-1.70;99.90
23143;DHT22;11740;51.168;4.112;2023-03-01T03:57:58;-1.70;99.90
23143;DHT22;11740;51.168;4.112;2023-03-01T04:00:28;-1.70;99.90
23143;DHT22;11740;51.168;4.112;2023-03-01T04:02:55;-1.70;99.90
23143;DHT22;11740;51.168;4.112;2023-03-01T04:05:23;-1.70;99.90
23143;DHT22;11740;51.168;4.112;2023-03-01T04:07:50;-1.80;99.90
23143;DHT22;11740;51.168;4.112;2023-03-01T04:10:31;-1.80;99.90
23143;DHT22;11740;51.168;4.112;2023-03-01T04:12:59;-1.80;96.50
23143;DHT22;11740;51.168;4.112;2023-03-01T04:15:26;-1.80;99.90
23143;DHT22;11740;51.168;4.112;2023-03-01T04:17:54;-1.80;99.90
23143;DHT22;11740;51.168;4.112;2023-03-01T04:20:25;-1.80;99.90
23143;DHT22;11740;51.168;4.112;2023-03-01T04:22:58;-1.80;99.90
23143;DHT22;11740;51.168;4.112;2023-03-01T04:25:38;-1.80;99.90
23143;DHT22;11740;51.168;4.112;2023-03-01T04:31:01;-1.80;99.90
23143;DHT22;11740;51.168;4.112;2023-03-01T04:33:40;-1.80;99.90
23143;DHT22;11740;51.168;4.112;2023-03-01T04:36:15;-1.90;99.90
23143;DHT22;11740;51.168;4.112;2023-03-01T04:38:42;-1.90;99.90
23143;DHT22;11740;51.168;4.112;2023-03-01T04:41:14;-1.90;99.90
23143;DHT22;11740;51.168;4.112;2023-03-01T04:43:44;-1.90;99.90
23143;DHT22;11740;51.168;4.112;2023-03-01T04:46:12;-2.00;99.90
23143;DHT22;11740;51.168;4.112;2023-03-01T04:48:41;-2.00;99.90
23143;DHT22;11740;51.168;4.112;2023-03-01T04:51:09;-1.90;99.90
23143;DHT22;11740;51.168;4.112;2023-03-01T04:53:40;-2.00;99.90
23143;DHT22;11740;51.168;4.112;2023-03-01T04:56:07;-2.00;99.90
23143;DHT22;11740;51.168;4.112;2023-03-01T04:58:34;-2.00;99.90
23143;DHT22;11740;51.168;4.112;2023-03-01T05:01:01;-2.10;99.90
23143;DHT22;11740;51.168;4.112;2023-03-01T05:03:28;-2.00;99.90
23143;DHT22;11740;51.168;4.112;2023-03-01T05:05:58;-2.10;99.90
23143;DHT22;11740;51.168;4.112;2023-03-01T05:08:26;-2.10;99.90
23143;DHT22;11740;51.168;4.112;2023-03-01T05:10:53;-2.10;99.90
23143;DHT22;11740;51.168;4.112;2023-03-01T05:13:20;-2.10;99.90
23143;DHT22;11740;51.168;4.112;2023-03-01T05:15:48;-2.20;99.90
23143;DHT22;11740;51.168;4.112;2023-03-01T05:18:23;-2.20;99.90
23143;DHT22;11740;51.168;4.112;2023-03-01T05:20:53;-2.20;99.90
23143;DHT22;11740;51.168;4.112;2023-03-01T05:23:22;-2.20;99.90
23143;DHT22;11740;51.168;4.112;2023-03-01T05:25:49;-2.20;99.90
23143;DHT22;11740;51.168;4.112;2023-03-01T05:28:19;-2.20;99.90
23143;DHT22;11740;51.168;4.112;2023-03-01T05:30:46;-2.20;99.90
23143;DHT22;11740;51.168;4.112;2023-03-01T05:33:13;-2.20;99.90
23143;DHT22;11740;51.168;4.112;2023-03-01T05:35:41;-2.20;99.90
23143;DHT22;11740;51.168;4.112;2023-03-01T05:38:11;-2.20;99.90
23143;DHT22;11740;51.168;4.112;2023-03-01T05:40:40;-2.20;99.90
23143;DHT22;11740;51.168;4.112;2023-03-01T05:43:13;-2.20;99.90
23143;DHT22;11740;51.168;4.112;2023-03-01T05:45:41;-2.20;99.90
23143;DHT22;11740;51.168;4.112;2023-03-01T05:48:09;-2.30;99.90
23143;DHT22;11740;51.168;4.112;2023-03-01T05:50:38;-2.30;99.90
23143;DHT22;11740;51.168;4.112;2023-03-01T05:53:11;-2.30;99.90
23143;DHT22;11740;51.168;4.112;2023-03-01T05:55:39;-2.40;99.90
23143;DHT22;11740;51.168;4.112;2023-03-01T05:58:10;-2.40;1.00
23143;DHT22;11740;51.168;4.112;2023-03-01T06:00:40;-2.40;99.90
23143;DHT22;11740;51.168;4.112;2023-03-01T06:03:09;-2.40;99.90
23143;DHT22;11740;51.168;4.112;2023-03-01T06:05:37;-2.40;99.90
23143;DHT22;11740;51.168;4.112;2023-03-01T06:08:04;-2.40;1.00
23143;DHT22;11740;51.168;4.112;2023-03-01T06:10:30;-2.40;1.00
23143;DHT22;11740;51.168;4.112;2023-03-01T06:12:58;-2.50;1.00
23143;DHT22;11740;51.168;4.112;2023-03-01T06:15:25;-2.50;1.00
23143;DHT22;11740;51.168;4.112;2023-03-01T06:17:53;-2.60;1.00
23143;DHT22;11740;51.168;4.112;2023-03-01T06:20:26;-2.60;1.00
23143;DHT22;11740;51.168;4.112;2023-03-01T06:22:53;-2.50;1.00
23143;DHT22;11740;51.168;4.112;2023-03-01T06:25:22;-2.50;1.00
23143;DHT22;11740;51.168;4.112;2023-03-01T06:27:51;-2.50;1.00
23143;DHT22;11740;51.168;4.112;2023-03-01T06:30:19;-2.50;1.00
23143;DHT22;11740;51.168;4.112;2023-03-01T06:32:47;-2.50;1.00
23143;DHT22;11740;51.168;4.112;2023-03-01T06:35:15;-2.50;1.00
23143;DHT22;11740;51.168;4.112;2023-03-01T06:37:46;-2.60;1.00
23143;DHT22;11740;51.168;4.112;2023-03-01T06:40:14;-2.60;2.60
23143;DHT22;11740;51.168;4.112;2023-03-01T06:42:42;-2.60;1.00
23143;DHT22;11740;51.168;4.112;2023-03-01T06:45:10;-2.60;1.00
23143;DHT22;11740;51.168;4.112;2023-03-01T06:47:37;-2.60;1.00
23143;DHT22;11740;51.168;4.112;2023-03-01T06:50:04;-2.60;1.00
23143;DHT22;11740;51.168;4.112;2023-03-01T06:52:32;-2.60;1.00
23143;DHT22;11740;51.168;4.112;2023-03-01T06:54:59;-2.60;1.00
23143;DHT22;11740;51.168;4.112;2023-03-01T06:57:26;-2.60;1.00
23143;DHT22;11740;51.168;4.112;2023-03-01T06:59:53;-2.60;1.00
23143;DHT22;11740;51.168;4.112;2023-03-01T07:02:20;-2.60;1.00
23143;DHT22;11740;51.168;4.112;2023-03-01T07:04:48;-2.60;1.00
23143;DHT22;11740;51.168;4.112;2023-03-01T07:07:16;-2.60;1.00
23143;DHT22;11740;51.168;4.112;2023-03-01T07:09:45;-2.60;1.00
23143;DHT22;11740;51.168;4.112;2023-03-01T07:12:12;-2.60;1.00
23143;DHT22;11740;51.168;4.112;2023-03-01T07:14:39;-2.60;1.00
23143;DHT22;11740;51.168;4.112;2023-03-01T07:17:06;-2.60;99.90
23143;DHT22;11740;51.168;4.112;2023-03-01T07:19:33;-2.60;99.90
23143;DHT22;11740;51.168;4.112;2023-03-01T07:22:00;-2.50;99.90
23143;DHT22;11740;51.168;4.112;2023-03-01T07:24:27;-2.50;1.00
23143;DHT22;11740;51.168;4.112;2023-03-01T07:26:54;-2.50;99.90
23143;DHT22;11740;51.168;4.112;2023-03-01T07:29:21;-2.50;99.90
23143;DHT22;11740;51.168;4.112;2023-03-01T07:31:48;-2.50;99.90
23143;DHT22;11740;51.168;4.112;2023-03-01T07:34:15;-2.50;99.90
23143;DHT22;11740;51.168;4.112;2023-03-01T07:36:42;-2.40;99.90
23143;DHT22;11740;51.168;4.112;2023-03-01T07:39:10;-2.40;99.90
23143;DHT22;11740;51.168;4.112;2023-03-01T07:41:37;-2.40;99.90
23143;DHT22;11740;51.168;4.112;2023-03-01T07:44:04;-2.30;99.90
23143;DHT22;11740;51.168;4.112;2023-03-01T07:46:31;-2.30;99.90
23143;DHT22;11740;51.168;4.112;2023-03-01T07:48:58;-2.20;99.90
23143;DHT22;11740;51.168;4.112;2023-03-01T07:51:25;-2.20;99.90
23143;DHT22;11740;51.168;4.112;2023-03-01T07:53:52;-2.10;99.90
23143;DHT22;11740;51.168;4.112;2023-03-01T07:56:19;-2.10;99.90
23143;DHT22;11740;51.168;4.112;2023-03-01T07:58:46;-2.10;99.90
23143;DHT22;11740;51.168;4.112;2023-03-01T08:01:17;-2.00;99.90
23143;DHT22;11740;51.168;4.112;2023-03-01T08:03:46;-1.90;99.90
23143;DHT22;11740;51.168;4.112;2023-03-01T08:06:13;-1.90;99.90
23143;DHT22;11740;51.168;4.112;2023-03-01T08:08:41;-1.80;99.90
23143;DHT22;11740;51.168;4.112;2023-03-01T08:11:10;-1.70;99.90
23143;DHT22;11740;51.168;4.112;2023-03-01T08:13:38;-1.70;99.90
23143;DHT22;11740;51.168;4.112;2023-03-01T08:16:07;-1.60;99.90
23143;DHT22;11740;51.168;4.112;2023-03-01T08:18:35;-1.50;99.90
23143;DHT22;11740;51.168;4.112;2023-03-01T08:21:03;-1.50;99.90
23143;DHT22;11740;51.168;4.112;2023-03-01T08:23:31;-1.50;99.90
23143;DHT22;11740;51.168;4.112;2023-03-01T08:26:08;-1.30;99.90
23143;DHT22;11740;51.168;4.112;2023-03-01T08:28:43;-1.20;99.90
23143;DHT22;11740;51.168;4.112;2023-03-01T08:33:41;-1.00;99.90
23143;DHT22;11740;51.168;4.112;2023-03-01T08:36:08;-0.90;99.90
23143;DHT22;11740;51.168;4.112;2023-03-01T08:38:35;-0.80;99.90
23143;DHT22;11740;51.168;4.112;2023-03-01T08:41:02;-0.70;93.70
23143;DHT22;11740;51.168;4.112;2023-03-01T08:43:29;-0.60;52.30
23143;DHT22;11740;51.168;4.112;2023-03-01T08:45:56;-0.50;99.90
23143;DHT22;11740;51.168;4.112;2023-03-01T08:48:24;-0.50;51.90
23143;DHT22;11740;51.168;4.112;2023-03-01T08:50:51;-0.40;52.90
23143;DHT22;11740;51.168;4.112;2023-03-01T08:53:18;-0.40;13.70
23143;DHT22;11740;51.168;4.112;2023-03-01T08:55:45;-0.40;23.50
23143;DHT22;11740;51.168;4.112;2023-03-01T08:58:12;-0.30;1.00
23143;DHT22;11740;51.168;4.112;2023-03-01T09:00:39;-0.10;1.00
23143;DHT22;11740;51.168;4.112;2023-03-01T09:03:06;-0.10;1.00
23143;DHT22;11740;51.168;4.112;2023-03-01T09:05:33;-0.10;1.00
23143;DHT22;11740;51.168;4.112;2023-03-01T09:08:00;0.00;1.00
23143;DHT22;11740;51.168;4.112;2023-03-01T09:10:27;0.00;1.00
23143;DHT22;11740;51.168;4.112;2023-03-01T09:12:54;0.00;1.00
23143;DHT22;11740;51.168;4.112;2023-03-01T09:15:21;0.00;1.00
23143;DHT22;11740;51.168;4.112;2023-03-01T09:17:48;0.00;1.00
23143;DHT22;11740;51.168;4.112;2023-03-01T09:20:14;0.10;1.00
23143;DHT22;11740;51.168;4.112;2023-03-01T09:22:42;0.10;1.00
23143;DHT22;11740;51.168;4.112;2023-03-01T09:25:09;0.20;1.00
23143;DHT22;11740;51.168;4.112;2023-03-01T09:27:36;0.20;1.00
23143;DHT22;11740;51.168;4.112;2023-03-01T09:30:03;0.30;1.00
23143;DHT22;11740;51.168;4.112;2023-03-01T09:32:31;0.40;1.00
23143;DHT22;11740;51.168;4.112;2023-03-01T09:34:58;0.40;1.00
23143;DHT22;11740;51.168;4.112;2023-03-01T09:37:31;0.50;1.00
23143;DHT22;11740;51.168;4.112;2023-03-01T09:39:58;0.60;99.90
23143;DHT22;11740;51.168;4.112;2023-03-01T09:42:25;0.70;99.90
23143;DHT22;11740;51.168;4.112;2023-03-01T09:45:07;0.80;99.90
23143;DHT22;11740;51.168;4.112;2023-03-01T09:47:38;0.80;99.90
23143;DHT22;11740;51.168;4.112;2023-03-01T09:56:00;1.30;99.90
23143;DHT22;11740;51.168;4.112;2023-03-01T10:04:38;1.40;99.90
23143;DHT22;11740;51.168;4.112;2023-03-01T10:09:50;1.60;99.90
23143;DHT22;11740;51.168;4.112;2023-03-01T10:12:22;1.70;99.90
23143;DHT22;11740;51.168;4.112;2023-03-01T10:15:06;1.70;99.90
23143;DHT22;11740;51.168;4.112;2023-03-01T10:17:37;1.80;99.90
23143;DHT22;11740;51.168;4.112;2023-03-01T10:20:24;1.90;99.90
23143;DHT22;11740;51.168;4.112;2023-03-01T10:23:13;1.90;99.90
23143;DHT22;11740;51.168;4.112;2023-03-01T10:25:47;2.00;99.90
23143;DHT22;11740;51.168;4.112;2023-03-01T10:28:20;2.00;99.90
23143;DHT22;11740;51.168;4.112;2023-03-01T10:31:12;2.10;99.90
23143;DHT22;11740;51.168;4.112;2023-03-01T10:33:40;2.10;99.90
23143;DHT22;11740;51.168;4.112;2023-03-01T10:36:08;2.10;99.90
23143;DHT22;11740;51.168;4.112;2023-03-01T10:38:52;2.20;99.90
23143;DHT22;11740;51.168;4.112;2023-03-01T10:41:21;2.30;99.90
23143;DHT22;11740;51.168;4.112;2023-03-01T10:43:51;2.40;99.90
23143;DHT22;11740;51.168;4.112;2023-03-01T10:46:33;2.40;99.90
23143;DHT22;11740;51.168;4.112;2023-03-01T10:49:19;2.50;99.90
23143;DHT22;11740;51.168;4.112;2023-03-01T10:51:47;2.50;99.90
23143;DHT22;11740;51.168;4.112;2023-03-01T10:56:56;2.60;99.90
23143;DHT22;11740;51.168;4.112;2023-03-01T11:07:51;2.80;99.90
23143;DHT22;11740;51.168;4.112;2023-03-01T11:10:21;3.00;99.90
23143;DHT22;11740;51.168;4.112;2023-03-01T11:12:52;3.00;99.90
23143;DHT22;11740;51.168;4.112;2023-03-01T11:15:24;3.10;99.90
23143;DHT22;11740;51.168;4.112;2023-03-01T11:17:53;3.20;99.90
23143;DHT22;11740;51.168;4.112;2023-03-01T11:20:38;3.30;99.90
23143;DHT22;11740;51.168;4.112;2023-03-01T11:23:06;3.30;99.90
23143;DHT22;11740;51.168;4.112;2023-03-01T11:25:38;3.40;99.90
23143;DHT22;11740;51.168;4.112;2023-03-01T11:28:09;3.50;99.90
23143;DHT22;11740;51.168;4.112;2023-03-01T11:33:25;3.70;99.90
23143;DHT22;11740;51.168;4.112;2023-03-01T11:36:15;3.70;99.90
23143;DHT22;11740;51.168;4.112;2023-03-01T11:38:46;3.80;99.90
23143;DHT22;11740;51.168;4.112;2023-03-01T11:41:17;3.90;99.90
23143;DHT22;11740;51.168;4.112;2023-03-01T11:43:54;3.90;99.90
23143;DHT22;11740;51.168;4.112;2023-03-01T11:56:51;4.30;99.90
23143;DHT22;11740;51.168;4.112;2023-03-01T12:01:53;4.40;99.90
23143;DHT22;11740;51.168;4.112;2023-03-01T12:10:07;4.80;98.50
23143;DHT22;11740;51.168;4.112;2023-03-01T12:21:00;5.30;88.80
23143;DHT22;11740;51.168;4.112;2023-03-01T12:26:40;5.40;58.40
23143;DHT22;11740;51.168;4.112;2023-03-01T12:34:25;5.80;62.00
23143;DHT22;11740;51.168;4.112;2023-03-01T12:37:16;6.00;56.00
23143;DHT22;11740;51.168;4.112;2023-03-01T12:40:10;6.00;50.40
23143;DHT22;11740;51.168;4.112;2023-03-01T12:47:58;6.30;29.60
23143;DHT22;11740;51.168;4.112;2023-03-01T12:50:53;6.50;33.30
23143;DHT22;11740;51.168;4.112;2023-03-01T12:53:39;6.70;29.70
23143;DHT22;11740;51.168;4.112;2023-03-01T12:56:09;6.70;28.00
23143;DHT22;11740;51.168;4.112;2023-03-01T13:09:45;7.40;8.00
23143;DHT22;11740;51.168;4.112;2023-03-01T13:20:21;8.00;3.80
23143;DHT22;11740;51.168;4.112;2023-03-01T13:23:24;8.00;1.00
23143;DHT22;11740;51.168;4.112;2023-03-01T13:26:00;8.30;1.00
23143;DHT22;11740;51.168;4.112;2023-03-01T13:33:43;8.70;1.00
23143;DHT22;11740;51.168;4.112;2023-03-01T13:38:57;8.90;1.00
23143;DHT22;11740;51.168;4.112;2023-03-01T13:44:25;9.10;1.00
23143;DHT22;11740;51.168;4.112;2023-03-01T13:49:52;9.60;1.00
23143;DHT22;11740;51.168;4.112;2023-03-01T13:52:30;9.70;1.00
23143;DHT22;11740;51.168;4.112;2023-03-01T13:54:58;9.80;1.00
23143;DHT22;11740;51.168;4.112;2023-03-01T13:57:26;9.90;1.00
23143;DHT22;11740;51.168;4.112;2023-03-01T13:59:57;10.10;1.00
23143;DHT22;11740;51.168;4.112;2023-03-01T14:02:23;10.30;1.00
23143;DHT22;11740;51.168;4.112;2023-03-01T14:05:00;10.40;1.00
23143;DHT22;11740;51.168;4.112;2023-03-01T14:07:27;10.60;1.00
23143;DHT22;11740;51.168;4.112;2023-03-01T14:10:00;10.60;1.00
23143;DHT22;11740;51.168;4.112;2023-03-01T14:20:41;10.90;1.00
23143;DHT22;11740;51.168;4.112;2023-03-01T14:23:10;11.10;1.00
23143;DHT22;11740;51.168;4.112;2023-03-01T14:25:45;11.40;1.00
23143;DHT22;11740;51.168;4.112;2023-03-01T14:28:18;11.50;1.00
23143;DHT22;11740;51.168;4.112;2023-03-01T14:30:47;11.70;1.00
23143;DHT22;11740;51.168;4.112;2023-03-01T14:33:37;11.70;1.00
23143;DHT22;11740;51.168;4.112;2023-03-01T14:36:08;11.70;1.00
23143;DHT22;11740;51.168;4.112;2023-03-01T14:41:14;11.80;1.00
23143;DHT22;11740;51.168;4.112;2023-03-01T14:43:44;12.00;1.00
23143;DHT22;11740;51.168;4.112;2023-03-01T14:46:20;12.20;1.00
23143;DHT22;11740;51.168;4.112;2023-03-01T14:48:53;12.30;1.00
23143;DHT22;11740;51.168;4.112;2023-03-01T14:51:21;12.30;1.00
23143;DHT22;11740;51.168;4.112;2023-03-01T14:53:48;12.50;1.00
23143;DHT22;11740;51.168;4.112;2023-03-01T14:56:17;12.60;1.00
23143;DHT22;11740;51.168;4.112;2023-03-01T14:58:45;12.80;1.00
23143;DHT22;11740;51.168;4.112;2023-03-01T15:01:14;12.90;1.00
23143;DHT22;11740;51.168;4.112;2023-03-01T15:03:43;13.00;1.00
23143;DHT22;11740;51.168;4.112;2023-03-01T15:06:14;13.10;1.00
23143;DHT22;11740;51.168;4.112;2023-03-01T15:08:47;13.40;1.00
23143;DHT22;11740;51.168;4.112;2023-03-01T15:13:49;13.60;1.00
23143;DHT22;11740;51.168;4.112;2023-03-01T15:16:17;13.70;1.00
23143;DHT22;11740;51.168;4.112;2023-03-01T15:18:47;13.70;1.00
23143;DHT22;11740;51.168;4.112;2023-03-01T15:21:17;13.90;1.00
23143;DHT22;11740;51.168;4.112;2023-03-01T15:27:04;14.30;1.00
23143;DHT22;11740;51.168;4.112;2023-03-01T15:29:34;14.10;1.00
23143;DHT22;11740;51.168;4.112;2023-03-01T15:32:29;14.10;1.00
23143;DHT22;11740;51.168;4.112;2023-03-01T15:35:01;14.20;1.00
23143;DHT22;11740;51.168;4.112;2023-03-01T15:40:51;14.30;1.00
23143;DHT22;11740;51.168;4.112;2023-03-01T15:46:04;14.60;1.00
23143;DHT22;11740;51.168;4.112;2023-03-01T15:48:31;14.60;1.00
23143;DHT22;11740;51.168;4.112;2023-03-01T15:50:58;14.30;1.00
23143;DHT22;11740;51.168;4.112;2023-03-01T15:53:25;14.40;1.00
23143;DHT22;11740;51.168;4.112;2023-03-01T15:55:54;14.30;1.00
23143;DHT22;11740;51.168;4.112;2023-03-01T15:58:22;14.30;1.00
23143;DHT22;11740;51.168;4.112;2023-03-01T16:00:50;14.50;1.00
23143;DHT22;11740;51.168;4.112;2023-03-01T16:03:27;14.70;1.00
23143;DHT22;11740;51.168;4.112;2023-03-01T16:05:55;14.70;1.00
23143;DHT22;11740;51.168;4.112;2023-03-01T16:08:22;14.60;1.00
23143;DHT22;11740;51.168;4.112;2023-03-01T16:10:49;14.40;1.00
23143;DHT22;11740;51.168;4.112;2023-03-01T16:13:17;14.30;1.00
23143;DHT22;11740;51.168;4.112;2023-03-01T16:15:44;14.00;1.00
23143;DHT22;11740;51.168;4.112;2023-03-01T16:18:11;13.70;1.00
23143;DHT22;11740;51.168;4.112;2023-03-01T16:20:38;13.60;1.00
23143;DHT22;11740;51.168;4.112;2023-03-01T16:23:06;13.30;1.00
23143;DHT22;11740;51.168;4.112;2023-03-01T16:25:34;13.20;1.00
23143;DHT22;11740;51.168;4.112;2023-03-01T16:28:02;12.90;1.00
23143;DHT22;11740;51.168;4.112;2023-03-01T16:30:35;12.80;1.00
23143;DHT22;11740;51.168;4.112;2023-03-01T16:33:06;12.80;1.00
23143;DHT22;11740;51.168;4.112;2023-03-01T16:35:56;12.80;1.00
23143;DHT22;11740;51.168;4.112;2023-03-01T16:38:24;12.60;1.00
23143;DHT22;11740;51.168;4.112;2023-03-01T16:40:51;12.60;1.00
23143;DHT22;11740;51.168;4.112;2023-03-01T16:43:18;12.50;1.00
23143;DHT22;11740;51.168;4.112;2023-03-01T16:45:45;12.50;1.00
23143;DHT22;11740;51.168;4.112;2023-03-01T16:48:13;12.60;1.00
23143;DHT22;11740;51.168;4.112;2023-03-01T16:50:40;12.40;1.00
23143;DHT22;11740;51.168;4.112;2023-03-01T16:53:08;12.50;1.00
23143;DHT22;11740;51.168;4.112;2023-03-01T16:55:35;12.70;1.00
23143;DHT22;11740;51.168;4.112;2023-03-01T16:58:02;12.50;1.00
23143;DHT22;11740;51.168;4.112;2023-03-01T17:00:30;12.30;1.00
23143;DHT22;11740;51.168;4.112;2023-03-01T17:02:57;12.10;1.00
23143;DHT22;11740;51.168;4.112;2023-03-01T17:05:24;11.90;1.00
23143;DHT22;11740;51.168;4.112;2023-03-01T17:07:52;11.80;1.00
23143;DHT22;11740;51.168;4.112;2023-03-01T17:10:22;11.80;1.00
23143;DHT22;11740;51.168;4.112;2023-03-01T17:12:49;11.80;1.00
23143;DHT22;11740;51.168;4.112;2023-03-01T17:15:16;11.80;1.00
23143;DHT22;11740;51.168;4.112;2023-03-01T17:17:43;11.60;1.00
23143;DHT22;11740;51.168;4.112;2023-03-01T17:20:10;11.60;1.00
23143;DHT22;11740;51.168;4.112;2023-03-01T17:22:37;11.40;1.00
23143;DHT22;11740;51.168;4.112;2023-03-01T17:25:06;11.30;1.00
23143;DHT22;11740;51.168;4.112;2023-03-01T17:27:36;11.10;1.00
23143;DHT22;11740;51.168;4.112;2023-03-01T17:30:03;11.00;1.00
23143;DHT22;11740;51.168;4.112;2023-03-01T17:32:32;11.00;1.00
23143;DHT22;11740;51.168;4.112;2023-03-01T17:34:59;10.90;1.00
23143;DHT22;11740;51.168;4.112;2023-03-01T17:37:26;10.70;1.00
23143;DHT22;11740;51.168;4.112;2023-03-01T17:39:53;10.60;1.00
23143;DHT22;11740;51.168;4.112;2023-03-01T17:42:20;10.60;1.00
23143;DHT22;11740;51.168;4.112;2023-03-01T17:44:47;10.50;1.00
23143;DHT22;11740;51.168;4.112;2023-03-01T17:47:14;10.30;1.00
23143;DHT22;11740;51.168;4.112;2023-03-01T17:49:41;10.30;1.00
23143;DHT22;11740;51.168;4.112;2023-03-01T17:52:07;10.30;1.00
23143;DHT22;11740;51.168;4.112;2023-03-01T17:54:34;10.20;1.00
23143;DHT22;11740;51.168;4.112;2023-03-01T17:57:01;10.10;1.00
23143;DHT22;11740;51.168;4.112;2023-03-01T17:59:28;9.90;1.00
23143;DHT22;11740;51.168;4.112;2023-03-01T18:01:56;9.80;1.00
23143;DHT22;11740;51.168;4.112;2023-03-01T18:04:24;9.60;1.00
23143;DHT22;11740;51.168;4.112;2023-03-01T18:06:50;9.40;1.00
23143;DHT22;11740;51.168;4.112;2023-03-01T18:09:17;9.10;1.00
23143;DHT22;11740;51.168;4.112;2023-03-01T18:11:44;9.00;1.00
23143;DHT22;11740;51.168;4.112;2023-03-01T18:14:13;9.00;1.00
23143;DHT22;11740;51.168;4.112;2023-03-01T18:16:40;9.00;1.00
23143;DHT22;11740;51.168;4.112;2023-03-01T18:19:07;8.80;1.00
23143;DHT22;11740;51.168;4.112;2023-03-01T18:21:33;8.80;1.00